Time;durP1;ratioP1;P1;durP2;ratioP2;P2;SDS_P1;SDS_P2;PMS_P1;PMS_P2;Temp;Humidity;BMP_temperature;BMP_pressure;BME280_temperature;BME280_humidity;BME280_pressure;Samples;Min_cycle;Max_cycle;Signal;HPM_P1;HPM_P2
2022/06/03 00:03:11;;;;;;;7.95;1.50;;;;;;;17.08;72.97;100351.38;10217324;29;20099;-78
2022/06/03 00:08:36;;;;;;;5.00;1.33;;;;;;;17.65;73.47;100472.47;10217211;29;20039;-78
2022/06/03 00:13:55;;;;;;;5.40;1.50;;;;;;;17.46;74.29;100488.44;10216904;29;20040;-78
2022/06/03 00:19:13;;;;;;;3.28;1.17;;;;;;;16.95;75.17;100427.38;10216439;29;20047;-78
2022/06/03 00:24:22;;;;;;;7.88;2.33;;;;;;;16.95;74.71;100494.47;10222027;28;20047;-78
2022/06/03 00:29:37;;;;;;;6.65;1.58;;;;;;;15.36;76.26;100261.78;10267661;28;20039;-78
2022/06/03 00:35:13;;;;;;;5.15;1.35;;;;;;;16.79;76.31;100495.69;10294406;28;20446;-78
2022/06/03 00:40:26;;;;;;;1.77;1.08;;;;;;;15.91;76.35;100368.88;10218928;29;20047;-78
2022/06/03 00:45:59;;;;;;;4.82;1.20;;;;;;;16.66;77.12;100501.00;10255452;29;20522;-78
2022/06/03 00:51:20;;;;;;;9.20;1.77;;;;;;;16.50;75.04;100498.72;10255764;29;20063;-78
2022/06/03 00:56:39;;;;;;;34.92;3.67;;;;;;;16.51;77.35;100511.94;10255058;29;20339;-78
2022/06/03 01:02:00;;;;;;;56.28;6.68;;;;;;;16.35;77.06;100526.50;10254141;29;20055;-78
2022/06/03 01:07:28;;;;;;;5.20;1.52;;;;;;;15.33;77.50;100352.38;10254835;29;20534;-78
2022/06/03 01:12:56;;;;;;;4.40;1.52;;;;;;;16.13;78.13;100514.28;10253958;28;20043;-78
2022/06/03 01:18:14;;;;;;;4.78;1.60;;;;;;;15.05;78.98;100388.03;10253777;29;20388;-78
2022/06/03 01:23:49;;;;;;;9.82;1.55;;;;;;;15.88;79.90;100524.66;10253883;28;20051;-78
2022/06/03 01:29:09;;;;;;;19.25;3.22;;;;;;;15.93;79.47;100527.56;10254305;29;20054;-79
2022/06/03 01:34:53;;;;;;;9.20;2.17;;;;;;;15.77;80.05;100509.16;10253403;29;20054;-78
2022/06/03 01:40:19;;;;;;;10.85;1.90;;;;;;;14.99;79.59;100378.94;10228955;29;20043;-78
2022/06/03 01:45:39;;;;;;;7.65;2.00;;;;;;;16.00;79.67;100525.75;10252037;29;20073;-79
2022/06/03 01:50:48;;;;;;;10.30;1.95;;;;;;;16.02;76.47;100514.84;10253211;28;20057;-77
2022/06/03 01:56:28;;;;;;;14.10;2.03;;;;;;;16.17;79.24;100521.69;10251195;29;20130;-78
2022/06/03 02:01:57;;;;;;;19.83;2.75;;;;;;;16.19;78.22;100492.84;10243617;29;20051;-78
2022/06/03 02:07:21;;;;;;;45.55;4.75;;;;;;;16.29;76.83;100468.34;10250042;28;20047;-78
2022/06/03 02:12:44;;;;;;;44.95;5.40;;;;;;;16.93;75.99;100514.47;10245813;29;20121;-80
2022/06/03 02:18:06;;;;;;;29.30;2.83;;;;;;;17.67;73.50;100514.22;10251111;29;20495;-80
2022/06/03 02:23:28;;;;;;;5.07;1.60;;;;;;;18.64;71.00;100523.16;10251560;28;20047;-80
2022/06/03 02:28:46;;;;;;;4.68;1.58;;;;;;;19.28;68.38;100528.50;10252064;29;20035;-77
2022/06/03 02:34:15;;;;;;;8.73;1.90;;;;;;;19.87;66.55;100537.88;10251369;29;20039;-77
2022/06/03 02:39:46;;;;;;;11.00;1.92;;;;;;;20.09;66.25;100523.94;10253000;28;20072;-77
2022/06/03 02:44:53;;;;;;;6.45;1.60;;;;;;;19.88;66.88;100517.13;10251797;29;20051;-77
2022/06/03 02:50:13;;;;;;;7.90;2.20;;;;;;;19.91;67.50;100533.69;10250856;28;20118;-77
2022/06/03 02:55:28;;;;;;;9.32;1.60;;;;;;;20.41;65.77;100536.19;10251868;29;20506;-77
2022/06/03 03:00:42;;;;;;;12.18;4.15;;;;;;;22.13;61.07;100528.94;10251668;28;20047;-77
2022/06/03 03:06:12;;;;;;;11.95;2.88;;;;;;;23.77;56.82;100510.09;10251560;29;20048;-78
2022/06/03 03:11:57;;;;;;;10.85;2.17;;;;;;;25.33;53.85;100532.91;10251323;29;20043;-77
2022/06/03 03:17:24;;;;;;;8.88;1.70;;;;;;;24.71;52.43;100411.19;10206242;29;20442;-77
2022/06/03 03:22:28;;;;;;;4.55;1.70;;;;;;;23.80;55.75;100515.84;10251384;29;20051;-77
2022/06/03 03:28:13;;;;;;;8.75;2.10;;;;;;;23.47;55.38;100413.69;10250281;29;20050;-77
2022/06/03 03:33:32;;;;;;;11.68;1.63;;;;;;;24.87;52.51;100501.81;10250374;29;20047;-77
2022/06/03 03:39:09;;;;;;;6.97;1.70;;;;;;;26.79;48.59;100492.09;10256582;28;20031;-79
2022/06/03 03:44:31;;;;;;;9.57;1.65;;;;;;;27.36;47.84;100524.81;10257243;28;20118;-78
2022/06/03 03:49:55;;;;;;;;;;;;;;;28.83;47.26;100530.75;10257573;29;20594;-79
2022/06/03 03:55:07;;;;;;;3.80;1.33;;;;;;;27.84;46.01;100526.09;10256553;28;20055;-79
2022/06/03 04:00:52;;;;;;;5.22;1.42;;;;;;;28.36;45.47;100510.25;10256740;29;20045;-79
2022/06/03 04:06:34;;;;;;;7.68;1.60;;;;;;;28.18;44.73;100462.56;10256417;29;20051;-77
2022/06/03 04:11:54;;;;;;;5.13;1.30;;;;;;;28.21;45.54;100503.81;10256692;29;20094;-78
2022/06/03 04:17:09;;;;;;;7.47;1.77;;;;;;;28.50;45.42;100511.28;10257857;28;20042;-77
2022/06/03 04:22:22;;;;;;;7.70;1.58;;;;;;;28.19;46.00;100519.66;10254049;28;20154;-77
2022/06/03 04:28:00;;;;;;;6.47;1.60;;;;;;;28.53;45.12;100502.53;10255646;29;20097;-77
2022/06/03 04:33:19;;;;;;;7.75;1.45;;;;;;;28.40;44.94;100501.22;10256232;29;20047;-76
2022/06/03 04:38:38;;;;;;;4.60;1.45;;;;;;;28.44;44.53;100475.00;10256712;29;20043;-77
2022/06/03 04:43:57;;;;;;;4.28;1.30;;;;;;;28.81;44.60;100505.63;10254892;29;20039;-77
2022/06/03 04:49:04;;;;;;;10.50;1.65;;;;;;;28.58;43.72;100406.84;10252316;28;20055;-77
2022/06/03 04:54:25;;;;;;;10.75;1.55;;;;;;;28.88;43.72;100512.38;10255403;29;20051;-77
2022/06/03 05:00:02;;;;;;;6.80;1.50;;;;;;;28.14;44.59;100513.41;10205911;29;20121;-77
2022/06/03 05:05:43;;;;;;;7.43;1.35;;;;;;;27.71;42.16;100489.25;10254323;29;20047;-74
2022/06/03 05:11:24;;;;;;;3.10;0.90;;;;;;;28.40;39.82;100516.81;10253982;29;20090;-75
2022/06/03 05:16:49;;;;;;;28.97;2.37;;;;;;;27.25;41.32;100399.41;10254761;29;20501;-74
2022/06/03 05:22:02;;;;;;;7.05;0.70;;;;;;;27.57;40.58;100517.41;10254160;29;20050;-77
2022/06/03 05:27:16;;;;;;;3.67;0.95;;;;;;;27.24;41.25;100495.91;10264461;28;20170;-76
2022/06/03 05:32:20;;;;;;;5.32;1.05;;;;;;;27.21;39.72;100512.84;10255475;28;20081;-74
2022/06/03 05:37:37;;;;;;;5.07;1.13;;;;;;;26.26;39.24;100377.09;10253438;29;20043;-75
2022/06/03 05:43:18;;;;;;;1.42;0.70;;;;;;;26.96;39.20;100500.03;10253945;29;20090;-73
2022/06/03 05:48:19;;;;;;;5.95;1.40;;;;;;;26.69;40.23;100488.56;10252334;29;20059;-70
2022/06/03 05:53:38;;;;;;;5.45;0.88;;;;;;;26.91;39.00;100499.19;10252543;29;20051;-72
2022/06/03 05:58:44;;;;;;;6.70;1.05;;;;;;;27.35;39.17;100474.91;10253213;28;20051;-71
2022/06/03 06:04:16;;;;;;;1.98;0.90;;;;;;;27.53;37.68;100476.22;10250778;28;20105;-70
2022/06/03 06:09:35;;;;;;;7.20;1.13;;;;;;;27.05;37.61;100366.69;10253110;29;20101;-70
2022/06/03 06:14:57;;;;;;;6.18;0.82;;;;;;;27.89;36.37;100476.94;10250460;29;20090;-70
2022/06/03 06:20:21;;;;;;;8.35;1.00;;;;;;;26.27;36.95;100264.38;10251702;29;20057;-70
2022/06/03 06:25:39;;;;;;;2.53;0.80;;;;;;;27.44;35.54;100450.59;10251992;28;20055;-70
2022/06/03 06:30:49;;;;;;;74.38;4.47;;;;;;;26.23;37.37;100323.16;10249482;29;20555;-71
2022/06/03 06:36:14;;;;;;;8.00;0.85;;;;;;;27.38;36.36;100501.63;10250325;29;20090;-69
2022/06/03 06:41:34;;;;;;;17.08;1.58;;;;;;;27.59;37.56;100517.97;10251139;29;20039;-72
2022/06/03 06:46:59;;;;;;;7.15;1.48;;;;;;;27.68;36.88;100519.84;10249309;28;20046;-71
2022/06/03 06:52:24;;;;;;;1.98;0.70;;;;;;;27.70;36.23;100509.47;10247307;29;20149;-70
2022/06/03 06:57:41;;;;;;;28.27;1.67;;;;;;;27.85;36.92;100519.53;10250269;29;20071;-72
2022/06/03 07:02:45;;;;;;;2.22;0.90;;;;;;;27.96;36.03;100520.31;10249859;29;20077;-72
2022/06/03 07:08:06;;;;;;;5.53;0.60;;;;;;;27.46;35.61;100430.16;10249242;29;20199;-71
2022/06/03 07:13:17;;;;;;;7.45;1.10;;;;;;;27.64;33.95;100406.03;10256880;28;20046;-71
2022/06/03 07:24:14;;;;;;;4.40;0.77;;;;;;;28.77;33.53;100499.09;10258589;29;20047;-71
2022/06/03 07:29:27;;;;;;;4.25;0.98;;;;;;;28.54;33.28;100531.50;10258490;29;20519;-71
2022/06/03 07:34:35;;;;;;;4.78;1.00;;;;;;;28.37;33.45;100540.03;10258369;29;20043;-72
2022/06/03 07:40:10;;;;;;;2.55;0.63;;;;;;;28.28;34.54;100555.41;10256726;29;20035;-71
2022/06/03 07:45:45;;;;;;;15.93;1.60;;;;;;;28.21;35.48;100543.97;10257857;29;20546;-71
2022/06/03 07:50:54;;;;;;;1.20;0.60;;;;;;;27.40;33.32;100433.16;10257014;29;20071;-72
2022/06/03 07:55:56;;;;;;;5.57;1.10;;;;;;;28.07;33.40;100538.28;10256937;29;20068;-71
2022/06/03 08:00:58;;;;;;;6.13;0.70;;;;;;;27.96;33.17;100528.50;10238474;29;20050;-72
2022/06/03 08:06:01;;;;;;;5.13;0.88;;;;;;;28.13;33.82;100534.44;10256864;29;20411;-72
2022/06/03 08:11:08;;;;;;;8.68;1.38;;;;;;;27.95;32.94;100472.25;10257334;29;20043;-71
2022/06/03 08:16:34;;;;;;;2.97;0.85;;;;;;;28.50;32.69;100518.69;10255892;29;20553;-72
2022/06/03 08:21:42;;;;;;;6.88;0.90;;;;;;;28.57;33.46;100511.81;10254868;28;20051;-73
2022/06/03 08:26:46;;;;;;;4.22;0.90;;;;;;;28.67;31.00;100517.19;10256039;29;20047;-71
2022/06/03 08:31:48;;;;;;;4.47;0.90;;;;;;;28.10;30.91;100417.56;10249685;29;20027;-72
2022/06/03 08:36:51;;;;;;;12.65;1.52;;;;;;;27.87;30.10;100380.03;10255207;28;20047;-72
2022/06/03 08:42:04;;;;;;;7.93;2.60;;;;;;;28.34;28.77;100428.59;10253254;29;20046;-72
2022/06/03 08:47:15;;;;;;;;;;;;;;;29.02;28.47;100512.59;10256458;29;20043;-71
2022/06/03 08:52:21;;;;;;;6.90;1.92;;;;;;;27.86;28.94;100321.88;10259856;28;19922;-71
2022/06/03 08:57:39;;;;;;;3.75;0.82;;;;;;;28.59;28.23;100400.28;10263014;28;20057;-73
2022/06/03 09:02:54;;;;;;;5.68;0.80;;;;;;;28.19;28.31;100354.97;10291341;28;20132;-71
2022/06/03 09:08:28;;;;;;;15.93;1.25;;;;;;;29.11;28.96;100472.56;10269325;28;20113;-72
2022/06/03 09:13:48;;;;;;;4.30;1.05;;;;;;;29.16;28.36;100501.78;10286079;28;20121;-71
2022/06/03 09:19:15;;;;;;;5.90;1.17;;;;;;;28.83;27.63;100451.47;10293747;28;20050;-71
2022/06/03 09:24:21;;;;;;;18.42;2.22;;;;;;;28.82;28.60;100458.84;10293246;28;20042;-71
2022/06/03 09:29:23;;;;;;;17.95;1.40;;;;;;;29.22;29.78;100486.13;10293845;28;20125;-72
2022/06/03 09:34:41;;;;;;;6.93;0.70;;;;;;;29.20;26.61;100447.31;10274034;28;20040;-71
2022/06/03 09:39:47;;;;;;;41.90;3.13;;;;;;;29.35;28.29;100466.31;10248386;29;20058;-71
2022/06/03 09:44:50;;;;;;;6.72;1.00;;;;;;;29.42;28.58;100460.47;10253171;29;20039;-71
2022/06/03 09:49:52;;;;;;;17.67;1.83;;;;;;;28.60;28.18;100347.25;10253134;29;20058;-70
2022/06/03 09:54:55;;;;;;;8.93;1.73;;;;;;;29.55;28.92;100481.66;10253036;28;20039;-71
2022/06/03 10:00:03;;;;;;;7.63;1.33;;;;;;;29.44;28.36;100441.84;10252381;29;20407;-71
2022/06/03 10:05:06;;;;;;;7.43;0.88;;;;;;;29.86;27.28;100456.69;10252957;29;20294;-69
2022/06/03 10:15:39;;;;;;;8.57;1.00;;;;;;;30.12;27.33;100440.69;10252219;29;20105;-71
2022/06/03 10:20:41;;;;;;;9.27;1.30;;;;;;;29.61;26.83;100346.34;10251213;29;20043;-72
2022/06/03 10:25:46;;;;;;;5.95;1.20;;;;;;;30.39;26.78;100451.81;10251976;29;20091;-73
2022/06/03 10:31:04;;;;;;;6.43;1.38;;;;;;;30.52;26.79;100408.34;10251318;29;20054;-71
2022/06/03 10:36:06;;;;;;;18.42;1.55;;;;;;;30.92;26.91;100445.22;10252643;29;20450;-72
2022/06/03 10:41:11;;;;;;;8.93;1.47;;;;;;;30.10;26.73;100301.28;10250695;29;20074;-72
2022/06/03 10:46:15;;;;;;;4.65;1.17;;;;;;;30.89;26.02;100432.91;10257023;28;20082;-73
2022/06/03 11:02:26;;;;;;;53.30;3.85;;;;;;;31.14;24.31;100417.09;10258717;29;20051;-73
2022/06/03 11:07:30;;;;;;;9.32;1.60;;;;;;;30.31;25.22;100331.94;10259346;29;20047;-73
2022/06/03 11:12:31;;;;;;;8.32;1.25;;;;;;;30.18;24.68;100319.75;10259235;29;20054;-73
2022/06/03 11:17:36;;;;;;;10.57;1.83;;;;;;;30.90;24.92;100409.88;10259199;29;20518;-73
2022/06/03 11:22:40;;;;;;;7.55;1.15;;;;;;;30.22;24.37;100309.06;10258471;29;20050;-76
2022/06/03 11:28:05;;;;;;;5.55;1.20;;;;;;;31.06;23.92;100409.59;10258394;29;20085;-74
2022/06/03 11:33:17;;;;;;;6.03;1.40;;;;;;;31.04;24.60;100414.56;10239336;29;20047;-74
2022/06/03 11:38:29;;;;;;;7.30;1.38;;;;;;;30.98;24.82;100408.34;10259012;29;20051;-74
2022/06/03 11:43:44;;;;;;;6.73;1.23;;;;;;;30.99;25.94;100398.19;10257902;29;20035;-75
2022/06/03 11:48:49;;;;;;;32.85;2.95;;;;;;;30.80;26.29;100390.84;10272900;28;20055;-74
2022/06/03 11:53:50;;;;;;;11.55;1.77;;;;;;;30.88;26.57;100381.94;10256702;28;20499;-75
2022/06/03 11:58:55;;;;;;;6.20;1.20;;;;;;;30.91;26.62;100402.47;10250338;28;20043;-74
2022/06/03 12:03:59;;;;;;;53.47;3.72;;;;;;;30.21;27.36;100297.31;10256707;29;20039;-73
2022/06/03 12:09:21;;;;;;;17.38;2.08;;;;;;;30.58;27.93;100363.28;10256671;29;20521;-74
2022/06/03 12:14:25;;;;;;;17.10;2.63;;;;;;;30.81;27.89;100399.88;10255860;29;20039;-73
2022/06/03 12:19:45;;;;;;;29.13;1.95;;;;;;;30.81;27.14;100397.97;10239175;29;20483;-74
2022/06/03 12:24:52;;;;;;;17.10;2.92;;;;;;;30.61;27.42;100381.84;10254723;29;20041;-75
2022/06/03 12:30:09;;;;;;;10.80;2.47;;;;;;;30.68;27.56;100404.22;10259164;28;20110;-73
2022/06/03 12:35:45;;;;;;;7.80;2.47;;;;;;;30.58;26.86;100391.50;10262715;28;20110;-74
2022/06/03 12:40:51;;;;;;;19.20;2.92;;;;;;;30.42;28.33;100388.22;10253249;29;20427;-75
2022/06/03 12:46:06;;;;;;;19.85;2.08;;;;;;;30.46;28.15;100391.16;10265484;28;20051;-74
2022/06/03 12:51:52;;;;;;;11.98;2.08;;;;;;;30.41;28.29;100388.50;10261957;28;20059;-74
2022/06/03 12:57:10;;;;;;;9.40;1.50;;;;;;;29.52;28.18;100274.22;10254545;28;20134;-74
2022/06/03 13:02:21;;;;;;;6.70;1.30;;;;;;;29.49;28.89;100258.41;10247995;29;20402;-74
2022/06/03 13:07:32;;;;;;;13.48;1.92;;;;;;;30.04;29.22;100351.81;10254291;28;20565;-73
2022/06/03 13:12:33;;;;;;;9.70;1.45;;;;;;;30.28;29.81;100390.06;10254121;29;20043;-73
2022/06/03 13:23:20;;;;;;;18.38;2.33;;;;;;;30.57;29.58;100367.09;10254386;29;20081;-74
2022/06/03 13:28:43;;;;;;;24.17;2.03;;;;;;;30.36;28.95;100329.09;10254131;29;20143;-75
2022/06/03 13:34:15;;;;;;;11.75;1.77;;;;;;;30.32;29.90;100349.19;10253964;29;20138;-74
2022/06/03 13:39:24;;;;;;;;;;;;;;;30.28;29.29;100354.47;10254195;29;20126;-74
2022/06/03 13:44:59;;;;;;;9.02;1.30;;;;;;;29.95;30.00;100354.41;10253469;29;19975;-73
2022/06/03 13:50:17;;;;;;;20.48;2.15;;;;;;;29.78;29.65;100349.44;10252899;28;20546;-75
2022/06/03 13:55:37;;;;;;;18.25;2.80;;;;;;;29.66;31.44;100346.31;10252970;29;20139;-75
2022/06/03 14:00:53;;;;;;;22.55;2.15;;;;;;;29.43;31.25;100337.03;10252607;29;20411;-75
2022/06/03 14:06:27;;;;;;;16.02;1.52;;;;;;;29.18;31.28;100331.91;10253256;29;20054;-74
2022/06/03 14:11:33;;;;;;;11.60;1.90;;;;;;;29.29;31.29;100336.94;10252886;29;20143;-73
2022/06/03 14:16:58;;;;;;;16.23;2.00;;;;;;;29.24;31.19;100344.41;10252119;29;20043;-74
2022/06/03 14:22:03;;;;;;;9.52;2.00;;;;;;;29.18;31.82;100332.69;10251524;28;20138;-73
2022/06/03 14:27:07;;;;;;;20.05;1.50;;;;;;;28.49;31.88;100224.69;10252720;29;20151;-75
2022/06/03 14:32:12;;;;;;;32.42;2.55;;;;;;;29.01;32.29;100313.19;10249572;29;20560;-74
2022/06/03 14:37:30;;;;;;;9.13;1.17;;;;;;;28.18;33.01;100187.53;10251672;29;20054;-73
2022/06/03 14:42:35;;;;;;;22.45;2.60;;;;;;;28.34;32.93;100223.69;10252209;29;20170;-74
2022/06/03 14:47:40;;;;;;;9.50;1.85;;;;;;;28.67;33.55;100281.31;10251455;29;20079;-75
2022/06/03 14:52:55;;;;;;;27.63;4.63;;;;;;;28.93;33.90;100332.97;10264258;28;20047;-74
2022/06/03 14:58:23;;;;;;;28.52;6.20;;;;;;;28.89;34.81;100338.19;10251580;29;20047;-74
2022/06/03 15:03:38;;;;;;;25.00;4.32;;;;;;;28.80;34.44;100331.75;10250956;29;20492;-73
2022/06/03 15:08:48;;;;;;;25.02;3.42;;;;;;;28.41;34.14;100262.44;10251641;29;20050;-73
2022/06/03 15:13:50;;;;;;;18.00;2.75;;;;;;;27.36;34.42;100115.66;10251876;29;20050;-74
2022/06/03 15:18:50;;;;;;;13.23;1.85;;;;;;;28.46;34.63;100301.75;10251181;29;20051;-73
2022/06/03 15:23:55;;;;;;;38.97;4.82;;;;;;;27.58;36.16;100184.22;10232025;29;20050;-73
2022/06/03 15:29:04;;;;;;;31.08;3.17;;;;;;;27.59;37.22;100195.97;10248626;29;20066;-77
2022/06/03 15:34:10;;;;;;;79.15;6.07;;;;;;;27.24;38.54;100160.47;10240006;29;20039;-74
2022/06/03 15:39:28;;;;;;;60.90;5.70;;;;;;;28.05;38.82;100315.75;10258356;29;20045;-73
2022/06/03 15:44:42;;;;;;;91.15;8.45;;;;;;;27.65;40.81;100261.13;10257829;29;20533;-73
2022/06/03 15:50:00;;;;;;;105.18;9.32;;;;;;;27.49;42.65;100286.88;10257364;28;20159;-75
2022/06/03 15:55:00;;;;;;;110.90;9.75;;;;;;;27.18;42.04;100278.06;10253599;29;20050;-76
2022/06/03 16:00:07;;;;;;;63.67;6.43;;;;;;;27.02;44.23;100286.28;10236322;29;20117;-74
2022/06/03 16:05:12;;;;;;;130.23;10.30;;;;;;;26.64;45.82;100274.13;10253772;29;20051;-73
2022/06/03 16:10:33;;;;;;;242.18;15.82;;;;;;;26.46;47.42;100278.22;10256769;29;20054;-73
2022/06/03 16:16:02;;;;;;;78.53;9.25;;;;;;;25.99;48.31;100245.88;10238583;29;20039;-74
2022/06/03 16:21:15;;;;;;;149.55;14.13;;;;;;;25.87;50.54;100276.06;10239621;29;20043;-74
2022/06/03 16:26:34;;;;;;;87.53;9.20;;;;;;;25.53;49.37;100253.97;10255825;29;20054;-73
2022/06/03 16:31:52;;;;;;;61.33;7.93;;;;;;;25.19;50.98;100249.00;10255726;29;20054;-74
2022/06/03 16:37:02;;;;;;;71.82;7.53;;;;;;;24.67;51.54;100219.94;10255554;29;20059;-74
2022/06/03 16:42:13;;;;;;;67.68;8.38;;;;;;;24.68;50.56;100240.59;10255213;28;20050;-75
2022/06/03 16:47:40;;;;;;;83.50;13.48;;;;;;;24.49;52.37;100235.59;10254745;29;20122;-74
2022/06/03 16:52:49;;;;;;;58.78;12.93;;;;;;;23.84;53.74;100186.03;10252016;28;20511;-74
2022/06/03 16:58:17;;;;;;;53.83;10.77;;;;;;;24.10;54.39;100245.91;10277011;28;20562;-74
2022/06/03 17:03:43;;;;;;;45.00;6.15;;;;;;;23.52;54.77;100215.00;10271929;28;20043;-74
2022/06/03 17:08:49;;;;;;;34.80;5.10;;;;;;;23.48;55.64;100241.78;10273478;28;20054;-75
2022/06/03 17:13:55;;;;;;;43.40;5.40;;;;;;;23.23;55.70;100247.78;10269395;28;20086;-75
2022/06/03 17:18:56;;;;;;;36.72;4.95;;;;;;;23.02;55.30;100236.69;10270934;28;20035;-74
2022/06/03 17:24:15;;;;;;;42.40;4.32;;;;;;;23.02;55.32;100254.84;10271479;28;20101;-75
2022/06/03 17:29:43;;;;;;;46.67;5.47;;;;;;;22.84;56.73;100268.69;10213839;29;20044;-75
2022/06/03 17:35:12;;;;;;;22.02;3.38;;;;;;;22.69;57.13;100280.94;10213693;29;20043;-75
2022/06/03 17:40:49;;;;;;;22.33;3.85;;;;;;;21.25;57.40;100084.22;10218480;28;20050;-75
2022/06/03 17:45:55;;;;;;;28.95;3.95;;;;;;;19.62;57.25;99858.84;10242214;28;20089;-76
2022/06/03 17:55:19;;;;;;;23.05;3.90;;;;;;;20.72;56.83;100061.94;10235000;29;20431;-75
2022/06/03 17:56:39;;;;;;;29.30;3.17;;;;;;;22.08;58.33;100290.81;10247365;28;20511;-74
2022/06/03 18:01:58;;;;;;;20.42;3.85;;;;;;;21.07;59.33;100166.28;10247176;29;20035;-74
2022/06/03 18:07:28;;;;;;;16.38;3.72;;;;;;;21.32;59.84;100228.88;10247601;29;20047;-74
2022/06/03 18:12:32;;;;;;;23.15;4.43;;;;;;;21.25;59.91;100260.63;10252759;28;20039;-74
2022/06/03 18:17:51;;;;;;;36.05;5.50;;;;;;;20.69;60.73;100168.50;10252213;29;20399;-74
2022/06/03 18:23:22;;;;;;;26.88;5.05;;;;;;;21.18;61.75;100281.56;10270646;28;20507;-74
2022/06/03 18:28:39;;;;;;;19.83;4.20;;;;;;;21.23;62.48;100297.84;10250845;29;20043;-74
2022/06/03 18:34:00;;;;;;;25.50;3.92;;;;;;;21.02;62.41;100274.19;10252048;29;20051;-74
2022/06/03 18:39:33;;;;;;;23.02;4.40;;;;;;;20.30;62.55;100170.06;10250209;29;20099;-74
2022/06/03 18:44:33;;;;;;;;;;;;;;;21.04;59.84;100296.38;10269339;28;20065;-74
2022/06/03 18:49:42;;;;;;;22.85;4.60;;;;;;;20.79;62.96;100302.88;10272902;28;20005;-74
2022/06/03 18:54:57;;;;;;;31.35;5.43;;;;;;;19.89;63.47;100152.13;10266253;28;20046;-74
2022/06/03 19:00:24;;;;;;;21.50;4.15;;;;;;;20.59;63.85;100281.66;10272744;28;20130;-74
2022/06/03 19:05:33;;;;;;;14.70;3.75;;;;;;;20.40;63.57;100286.31;10255920;28;20071;-74
2022/06/03 19:11:02;;;;;;;16.63;3.55;;;;;;;20.38;63.61;100269.53;10258194;29;20455;-75
2022/06/03 19:16:48;;;;;;;21.95;4.03;;;;;;;20.34;63.81;100271.06;10254566;29;20049;-74
2022/06/03 19:22:00;;;;;;;29.10;6.22;;;;;;;20.28;63.50;100269.28;10218936;29;20059;-74
2022/06/03 19:27:11;;;;;;;10.60;3.53;;;;;;;20.01;62.90;100236.53;10252873;29;20055;-74
2022/06/03 19:32:23;;;;;;;14.30;4.35;;;;;;;20.15;64.87;100296.50;10254424;29;20082;-75
2022/06/03 19:38:06;;;;;;;23.15;7.13;;;;;;;19.76;65.35;100225.97;10252266;29;20050;-74
2022/06/03 19:43:25;;;;;;;21.88;9.98;;;;;;;19.85;65.15;100281.19;10257623;28;20419;-74
2022/06/03 19:49:02;;;;;;;30.42;10.02;;;;;;;19.66;66.01;100255.38;10251738;29;20495;-74
2022/06/03 19:54:02;;;;;;;32.22;9.52;;;;;;;19.53;65.65;100273.34;10257409;29;20058;-75
2022/06/03 19:59:10;;;;;;;34.25;13.13;;;;;;;19.44;67.42;100271.97;10257031;29;20043;-75
2022/06/03 20:04:35;;;;;;;34.00;11.90;;;;;;;19.38;67.50;100265.66;10257763;29;20487;-75
2022/06/03 20:09:51;;;;;;;32.20;11.75;;;;;;;19.21;68.20;100258.44;10256391;29;20051;-74
2022/06/03 20:14:58;;;;;;;27.20;9.68;;;;;;;18.81;68.04;100210.44;10256987;29;20039;-75
2022/06/03 20:20:07;;;;;;;37.00;8.75;;;;;;;18.93;68.57;100232.88;10254577;28;20062;-77
2022/06/03 20:25:11;;;;;;;23.92;7.47;;;;;;;18.98;68.92;100241.09;10255605;29;20381;-76
2022/06/03 20:30:25;;;;;;;26.17;7.20;;;;;;;18.60;69.13;100187.47;10256424;29;20050;-76
2022/06/03 20:35:44;;;;;;;38.45;8.20;;;;;;;18.84;67.66;100239.59;10254544;29;20458;-76
2022/06/03 20:41:08;;;;;;;29.85;14.15;;;;;;;18.29;70.63;100143.56;10254945;29;20516;-76
2022/06/03 20:46:28;;;;;;;32.33;12.45;;;;;;;18.81;71.48;100222.03;10254399;29;20455;-74
2022/06/03 20:52:06;;;;;;;46.67;21.55;;;;;;;18.28;71.30;100141.06;10254637;28;20138;-75
2022/06/03 20:57:12;;;;;;;41.60;16.10;;;;;;;18.71;69.33;100213.66;10253202;29;20054;-75
2022/06/03 21:02:19;;;;;;;39.97;15.63;;;;;;;18.67;71.27;100220.53;10255590;29;20070;-75
2022/06/03 21:12:51;;;;;;;41.20;17.25;;;;;;;18.17;71.74;100169.53;10253213;29;20171;-76
2022/06/03 21:17:52;;;;;;;39.75;17.85;;;;;;;18.29;70.68;100218.03;10254348;29;20066;-76
2022/06/03 21:23:06;;;;;;;65.97;16.38;;;;;;;18.19;72.15;100208.59;10254064;29;20070;-75
2022/06/03 21:28:08;;;;;;;33.53;13.15;;;;;;;18.18;72.72;100206.13;10253273;28;20511;-75
2022/06/03 21:33:20;;;;;;;36.05;11.52;;;;;;;18.15;76.36;100204.69;10253815;29;20039;-76
2022/06/03 21:38:36;;;;;;;28.38;9.07;;;;;;;17.62;77.36;100151.41;10251974;29;20050;-76
2022/06/03 21:43:46;;;;;;;21.83;7.95;;;;;;;17.86;77.51;100213.41;10245337;29;20043;-77
2022/06/03 21:48:47;;;;;;;14.43;4.72;;;;;;;17.74;75.42;100211.44;10253339;28;20054;-75
2022/06/03 21:54:00;;;;;;;17.35;4.65;;;;;;;17.74;78.14;100211.44;10285892;28;20053;-75
2022/06/03 21:59:18;;;;;;;15.68;4.22;;;;;;;17.69;77.60;100222.00;10254363;28;20574;-75
2022/06/03 22:04:18;;;;;;;12.32;4.30;;;;;;;16.78;75.51;100107.75;10253228;29;20114;-76
2022/06/03 22:09:20;;;;;;;12.68;4.72;;;;;;;17.50;75.60;100234.53;10253349;29;20043;-74
2022/06/03 22:14:21;;;;;;;10.23;3.70;;;;;;;17.09;75.27;100175.91;10252629;29;20047;-76
2022/06/03 22:19:22;;;;;;;9.15;3.58;;;;;;;16.35;75.74;100081.50;10253148;29;20039;-76
2022/06/03 22:24:22;;;;;;;19.63;4.28;;;;;;;17.16;75.59;100202.69;10252202;29;20054;-74
2022/06/03 22:30:05;;;;;;;17.30;3.72;;;;;;;17.30;77.23;100225.75;10252195;29;20043;-74
2022/06/03 22:35:32;;;;;;;12.80;3.92;;;;;;;17.09;76.69;100213.47;10242461;29;20201;-75
2022/06/03 22:41:17;;;;;;;14.65;3.92;;;;;;;17.30;78.14;100272.22;10251481;29;20129;-75
2022/06/03 22:46:18;;;;;;;10.45;4.47;;;;;;;17.05;76.63;100257.88;10251534;29;20047;-74
2022/06/03 22:51:20;;;;;;;20.17;4.20;;;;;;;16.87;76.61;100242.44;10251486;29;20059;-74
2022/06/03 22:56:21;;;;;;;11.93;3.78;;;;;;;15.57;76.28;100037.78;10251404;29;20058;-75
2022/06/03 23:01:24;;;;;;;15.77;5.07;;;;;;;16.22;77.22;100156.59;10252414;29;20094;-74
2022/06/03 23:06:25;;;;;;;16.35;4.45;;;;;;;16.62;76.78;100235.06;10250741;29;20039;-74
2022/06/03 23:11:25;;;;;;;10.82;4.20;;;;;;;16.54;77.21;100234.47;10250867;29;20046;-74
2022/06/03 23:16:30;;;;;;;13.38;4.30;;;;;;;15.77;78.11;100123.50;10250723;29;20063;-75
2022/06/03 23:21:31;;;;;;;16.20;4.55;;;;;;;16.40;78.05;100242.53;10250757;29;20050;-75
2022/06/03 23:26:34;;;;;;;13.90;4.47;;;;;;;16.47;79.27;100279.25;10251065;29;20051;-74
2022/06/03 23:31:35;;;;;;;11.77;4.07;;;;;;;15.61;78.40;100127.34;10251515;29;20047;-74
2022/06/03 23:36:35;;;;;;;11.93;4.03;;;;;;;16.35;78.37;100252.25;10250927;29;20043;-75
2022/06/03 23:46:57;;;;;;;19.92;4.82;;;;;;;16.15;78.90;100236.16;10250840;29;20372;-74
2022/06/03 23:51:57;;;;;;;10.77;3.97;;;;;;;15.74;78.65;100195.16;10249737;28;20190;-73
2022/06/03 23:57:00;;;;;;;13.65;3.75;;;;;;;14.78;79.22;100077.66;10257011;29;20634;-74
